Time;durP1;ratioP1;P1;durP2;ratioP2;P2;SDS_P1;SDS_P2;PMS_P1;PMS_P2;Temp;Humidity;BMP_temperature;BMP_pressure;BME280_temperature;BME280_humidity;BME280_pressure;Samples;Min_cycle;Max_cycle;Signal;HPM_P1;HPM_P2
2021/04/27 00:00:55;;;;;;;31.20;13.03;;;2.20;99.90;;;;;;5208511;28;20234;-75
2021/04/27 00:03:26;;;;;;;31.70;12.87;;;2.20;99.90;;;;;;5208332;28;20202;-74
2021/04/27 00:05:58;;;;;;;28.43;12.83;;;2.20;99.90;;;;;;5208064;28;20699;-75
2021/04/27 00:08:30;;;;;;;31.00;11.93;;;2.20;99.90;;;;;;5207132;28;20205;-74
2021/04/27 00:11:02;;;;;;;30.53;11.83;;;2.20;99.90;;;;;;5207607;28;20232;-74
2021/04/27 00:13:34;;;;;;;26.40;10.80;;;2.20;99.90;;;;;;5207721;28;20234;-76
2021/04/27 00:16:06;;;;;;;22.50;10.00;;;2.20;99.90;;;;;;5208771;28;20213;-75
2021/04/27 00:18:37;;;;;;;21.77;10.00;;;2.20;99.90;;;;;;5207707;28;20209;-74
2021/04/27 00:21:09;;;;;;;18.53;8.27;;;2.20;99.90;;;;;;5208398;28;20208;-74
2021/04/27 00:23:40;;;;;;;18.27;8.20;;;2.20;99.90;;;;;;5207449;28;20232;-76
2021/04/27 00:26:12;;;;;;;17.20;7.27;;;2.20;99.90;;;;;;5207468;28;20206;-76
2021/04/27 00:28:43;;;;;;;15.20;7.10;;;2.30;99.90;;;;;;5207856;28;20574;-74
2021/04/27 00:31:15;;;;;;;21.60;8.07;;;2.20;99.90;;;;;;5207626;28;20230;-74
2021/04/27 00:33:46;;;;;;;19.50;6.70;;;2.30;99.90;;;;;;5207600;28;20715;-73
2021/04/27 00:36:17;;;;;;;14.17;6.30;;;2.30;99.90;;;;;;5207309;28;20213;-74
2021/04/27 00:38:49;;;;;;;13.73;6.10;;;2.30;99.90;;;;;;5207173;28;20833;-75
2021/04/27 00:41:22;;;;;;;13.33;5.83;;;2.30;99.90;;;;;;5207376;28;20209;-74
2021/04/27 00:43:54;;;;;;;12.23;5.73;;;2.30;99.90;;;;;;5207285;28;20248;-76
2021/04/27 00:46:25;;;;;;;12.97;5.93;;;2.30;99.90;;;;;;5207359;28;20209;-75
2021/04/27 00:48:57;;;;;;;13.03;5.97;;;2.30;99.90;;;;;;5207332;28;20209;-75
2021/04/27 00:51:30;;;;;;;13.07;5.77;;;2.30;99.90;;;;;;5206929;28;20570;-75
2021/04/27 00:54:03;;;;;;;12.17;5.93;;;2.30;99.90;;;;;;5206928;28;20218;-75
2021/04/27 00:56:35;;;;;;;14.13;5.50;;;2.30;99.90;;;;;;5207118;28;20202;-72
2021/04/27 00:59:07;;;;;;;12.73;5.77;;;2.30;99.90;;;;;;5222411;28;20217;-73
2021/04/27 01:01:38;;;;;;;11.80;5.90;;;2.30;99.90;;;;;;5207133;28;20213;-73
2021/04/27 01:04:10;;;;;;;9.23;5.17;;;2.30;99.90;;;;;;5207243;28;20539;-74
2021/04/27 01:06:41;;;;;;;10.63;5.67;;;2.30;99.90;;;;;;5207190;28;20205;-73
2021/04/27 01:09:22;;;;;;;12.63;6.23;;;2.40;99.90;;;;;;5206787;28;20198;-74
2021/04/27 01:12:11;;;;;;;16.77;6.17;;;2.40;99.90;;;;;;5206420;28;20237;-69
2021/04/27 01:14:56;;;;;;;13.43;5.70;;;2.40;99.90;;;;;;5206772;28;20202;-74
2021/04/27 01:17:27;;;;;;;14.07;5.57;;;2.40;99.90;;;;;;5207556;28;20217;-74
2021/04/27 01:20:30;;;;;;;11.67;5.53;;;2.40;99.90;;;;;;5210724;28;20726;-72
2021/04/27 01:23:21;;;;;;;12.73;5.97;;;2.40;99.90;;;;;;5211282;28;20218;-75
2021/04/27 01:25:56;;;;;;;10.57;5.40;;;2.40;99.90;;;;;;5211004;28;20194;-73
2021/04/27 01:28:29;;;;;;;10.80;6.03;;;2.40;99.90;;;;;;5211000;28;20213;-73
2021/04/27 01:31:02;;;;;;;11.70;5.43;;;2.40;99.90;;;;;;5226115;28;20232;-72
2021/04/27 01:33:34;;;;;;;11.63;5.10;;;2.40;99.90;;;;;;5210973;28;20209;-72
2021/04/27 01:36:06;;;;;;;9.50;4.87;;;2.40;99.90;;;;;;5210812;28;20213;-72
2021/04/27 01:38:38;;;;;;;10.60;5.03;;;2.40;99.90;;;;;;5210726;28;20293;-71
2021/04/27 01:41:10;;;;;;;10.53;5.10;;;2.40;99.90;;;;;;5210585;28;20679;-69
2021/04/27 01:43:42;;;;;;;13.17;5.13;;;2.40;99.90;;;;;;5210535;28;20212;-72
2021/04/27 01:46:15;;;;;;;9.93;5.47;;;2.40;99.90;;;;;;5210941;28;20652;-71
2021/04/27 01:48:48;;;;;;;9.17;4.77;;;2.40;99.90;;;;;;5210639;28;20212;-70
2021/04/27 01:51:21;;;;;;;11.20;4.70;;;2.40;99.90;;;;;;5210364;28;20225;-74
2021/04/27 01:53:53;;;;;;;9.37;4.60;;;2.40;99.90;;;;;;5210444;28;20229;-73
2021/04/27 01:56:25;;;;;;;10.83;4.73;;;2.50;99.90;;;;;;5210237;28;20208;-72
2021/04/27 01:58:56;;;;;;;9.10;4.67;;;2.50;99.90;;;;;;5210550;28;20205;-77
2021/04/27 02:01:30;;;;;;;10.63;4.63;;;2.50;99.90;;;;;;5210431;28;20206;-77
2021/04/27 02:04:01;;;;;;;10.90;4.47;;;2.50;99.90;;;;;;5210880;28;20202;-73
2021/04/27 02:06:33;;;;;;;8.83;4.10;;;2.50;99.90;;;;;;5210534;28;20209;-73
2021/04/27 02:09:09;;;;;;;8.67;4.57;;;2.50;99.90;;;;;;5210370;28;20210;-76
2021/04/27 02:11:50;;;;;;;10.07;4.83;;;2.50;99.90;;;;;;5210334;28;20233;-69
2021/04/27 02:14:26;;;;;;;7.67;4.30;;;2.40;99.90;;;;;;5210588;28;20213;-71
2021/04/27 02:17:03;;;;;;;9.67;5.07;;;2.50;99.90;;;;;;5210602;28;20216;-70
2021/04/27 02:19:36;;;;;;;10.57;5.40;;;2.40;99.90;;;;;;5210071;28;20252;-70
2021/04/27 02:22:09;;;;;;;10.33;5.63;;;2.40;99.90;;;;;;5209025;28;20209;-74
2021/04/27 02:24:40;;;;;;;9.40;5.37;;;2.40;99.90;;;;;;5209918;28;20206;-69
2021/04/27 02:27:12;;;;;;;12.40;5.37;;;2.40;99.90;;;;;;5209967;28;20209;-72
2021/04/27 02:29:43;;;;;;;12.30;5.60;;;2.40;99.90;;;;;;5209077;28;20206;-67
2021/04/27 02:32:15;;;;;;;9.73;4.73;;;2.40;99.90;;;;;;5209781;28;20236;-67
2021/04/27 02:34:47;;;;;;;9.03;4.50;;;2.40;99.90;;;;;;5209883;28;20252;-68
2021/04/27 02:37:20;;;;;;;11.03;5.47;;;2.40;99.90;;;;;;5209859;28;20729;-69
2021/04/27 02:39:55;;;;;;;12.17;5.00;;;2.40;99.90;;;;;;5209346;28;20208;-66
2021/04/27 02:42:26;;;;;;;12.43;5.53;;;2.40;99.90;;;;;;5209421;28;20205;-67
2021/04/27 02:44:57;;;;;;;9.83;5.73;;;2.40;99.90;;;;;;5209497;28;20210;-75
2021/04/27 02:47:29;;;;;;;11.07;4.93;;;2.40;99.90;;;;;;5209520;28;20214;-71
2021/04/27 02:50:00;;;;;;;10.40;5.00;;;2.40;99.90;;;;;;5209613;28;20217;-67
2021/04/27 02:52:32;;;;;;;11.10;4.70;;;2.40;99.90;;;;;;5209419;28;20562;-75
2021/04/27 02:55:04;;;;;;;11.83;4.67;;;2.40;99.90;;;;;;5209265;28;20566;-76
2021/04/27 02:57:36;;;;;;;11.17;5.20;;;2.40;99.90;;;;;;5209229;28;20216;-72
2021/04/27 03:00:08;;;;;;;14.23;5.10;;;2.40;99.90;;;;;;5209719;28;20210;-70
2021/04/27 03:02:39;;;;;;;12.50;5.00;;;2.50;99.90;;;;;;5209378;28;20202;-72
2021/04/27 03:05:11;;;;;;;11.57;5.60;;;2.50;99.90;;;;;;5209267;28;20268;-69
2021/04/27 03:07:43;;;;;;;11.57;5.23;;;2.40;99.90;;;;;;5208906;28;20205;-70
2021/04/27 03:10:15;;;;;;;11.70;6.07;;;2.40;99.90;;;;;;5208795;28;20213;-68
2021/04/27 03:12:46;;;;;;;10.70;5.57;;;2.40;99.90;;;;;;5208582;28;20242;-66
2021/04/27 03:15:19;;;;;;;13.73;5.80;;;2.40;99.90;;;;;;5209064;28;20202;-67
2021/04/27 03:17:50;;;;;;;11.43;4.90;;;2.40;99.90;;;;;;5208876;28;20210;-65
2021/04/27 03:20:22;;;;;;;11.27;4.63;;;2.40;99.90;;;;;;5208963;28;20562;-68
2021/04/27 03:22:54;;;;;;;10.93;5.30;;;2.40;99.90;;;;;;5208691;28;20202;-71
2021/04/27 03:25:25;;;;;;;10.13;5.17;;;2.40;99.90;;;;;;5208773;28;20206;-69
2021/04/27 03:27:59;;;;;;;11.33;5.17;;;2.40;99.90;;;;;;5208583;28;20214;-67
2021/04/27 03:30:30;;;;;;;8.80;4.87;;;2.40;99.90;;;;;;5208676;28;20222;-70
2021/04/27 03:33:02;;;;;;;9.13;5.30;;;2.40;99.90;;;;;;5208644;28;20570;-67
2021/04/27 03:35:34;;;;;;;8.70;5.60;;;2.40;99.90;;;;;;5208711;28;20657;-70
2021/04/27 03:38:05;;;;;;;9.37;5.70;;;2.40;99.90;;;;;;5208672;28;20206;-70
2021/04/27 03:40:38;;;;;;;7.27;4.57;;;2.40;99.90;;;;;;5208689;28;20552;-69
2021/04/27 03:43:10;;;;;;;10.23;5.00;;;2.40;99.90;;;;;;5208086;28;20210;-66
2021/04/27 03:45:41;;;;;;;16.97;5.47;;;2.40;99.90;;;;;;5208370;28;20217;-70
2021/04/27 03:48:16;;;;;;;13.37;5.10;;;2.40;99.90;;;;;;5208513;28;20298;-67
2021/04/27 03:50:49;;;;;;;8.43;5.03;;;2.40;99.90;;;;;;5208147;28;20261;-66
2021/04/27 03:53:20;;;;;;;9.30;5.10;;;2.40;99.90;;;;;;5208569;28;20217;-68
2021/04/27 03:55:53;;;;;;;11.40;4.80;;;2.50;99.90;;;;;;5207999;28;20206;-68
2021/04/27 03:58:24;;;;;;;11.13;4.80;;;2.40;99.90;;;;;;5223421;28;20205;-67
2021/04/27 04:00:55;;;;;;;8.73;5.00;;;2.50;99.90;;;;;;5223530;28;20206;-68
2021/04/27 04:03:27;;;;;;;8.67;4.60;;;2.50;99.90;;;;;;5207972;28;20217;-70
2021/04/27 04:05:58;;;;;;;9.83;5.13;;;2.50;99.90;;;;;;5207823;28;20210;-68
2021/04/27 04:08:30;;;;;;;10.17;4.67;;;2.50;99.90;;;;;;5208078;28;20571;-69
2021/04/27 04:11:02;;;;;;;10.23;4.07;;;2.50;99.90;;;;;;5207612;28;20237;-68
2021/04/27 04:13:34;;;;;;;8.53;4.80;;;2.50;99.90;;;;;;5207596;28;20599;-68
2021/04/27 04:16:06;;;;;;;7.97;4.37;;;2.60;99.90;;;;;;5208039;28;20206;-67
2021/04/27 04:18:38;;;;;;;9.90;4.40;;;2.60;99.90;;;;;;5207669;28;20673;-66
2021/04/27 04:21:09;;;;;;;10.47;5.40;;;2.70;99.90;;;;;;5207649;28;20218;-69
2021/04/27 04:23:41;;;;;;;9.87;4.37;;;2.70;99.90;;;;;;5207783;28;20209;-69
2021/04/27 04:26:13;;;;;;;10.80;5.23;;;2.80;99.90;;;;;;5207273;28;20577;-67
2021/04/27 04:28:45;;;;;;;8.90;4.27;;;2.90;99.90;;;;;;5207441;28;20217;-68
2021/04/27 04:31:16;;;;;;;10.13;5.17;;;2.90;99.90;;;;;;5207524;28;20222;-69
2021/04/27 04:33:49;;;;;;;10.83;4.90;;;3.00;99.90;;;;;;5207431;28;20692;-67
2021/04/27 04:36:20;;;;;;;11.07;4.77;;;3.10;99.90;;;;;;5207274;28;20206;-67
2021/04/27 04:38:51;;;;;;;8.70;5.37;;;3.20;99.90;;;;;;5207429;28;20542;-66
2021/04/27 04:41:23;;;;;;;9.27;5.03;;;3.30;99.90;;;;;;5207234;28;20210;-65
2021/04/27 04:43:55;;;;;;;10.33;4.90;;;3.40;99.90;;;;;;5207010;28;20205;-68
2021/04/27 04:46:26;;;;;;;10.73;4.93;;;3.40;99.90;;;;;;5207293;28;20206;-63
2021/04/27 04:48:59;;;;;;;11.87;4.50;;;3.50;99.90;;;;;;5207166;28;20248;-66
2021/04/27 04:51:30;;;;;;;9.57;4.60;;;3.50;99.90;;;;;;5207371;28;20594;-69
2021/04/27 04:54:02;;;;;;;11.95;4.90;;;3.50;99.90;;;;;;5206838;28;20790;-69
2021/04/27 04:56:33;;;;;;;8.50;4.47;;;3.60;99.90;;;;;;5222247;28;20206;-68
2021/04/27 04:59:05;;;;;;;10.60;4.70;;;3.70;99.90;;;;;;5207122;28;20206;-68
2021/04/27 05:01:36;;;;;;;9.60;4.20;;;3.80;99.90;;;;;;5207314;28;20207;-69
2021/04/27 05:04:08;;;;;;;7.83;4.27;;;3.90;99.90;;;;;;5206775;28;20206;-69
2021/04/27 05:06:42;;;;;;;9.43;4.40;;;4.00;99.90;;;;;;5206824;28;20210;-70
2021/04/27 05:09:13;;;;;;;12.87;4.97;;;4.20;99.90;;;;;;5222170;28;20648;-73
2021/04/27 05:11:45;;;;;;;11.53;4.93;;;4.30;99.90;;;;;;5206324;28;20305;-71
2021/04/27 05:14:17;;;;;;;9.07;4.63;;;4.40;99.90;;;;;;5206656;28;20234;-69
2021/04/27 05:16:48;;;;;;;10.07;4.47;;;4.40;99.90;;;;;;5207039;28;20602;-68
2021/04/27 05:19:20;;;;;;;9.03;4.87;;;4.50;99.90;;;;;;5206923;28;20233;-69
2021/04/27 05:21:51;;;;;;;9.87;4.30;;;4.60;99.90;;;;;;5206697;28;20589;-70
2021/04/27 05:24:23;;;;;;;7.73;4.00;;;4.70;99.90;;;;;;5206532;28;20584;-69
2021/04/27 05:26:54;;;;;;;15.30;4.67;;;4.80;99.90;;;;;;5206812;28;20205;-71
2021/04/27 05:29:26;;;;;;;8.70;4.37;;;4.80;99.90;;;;;;5206905;28;20570;-71
2021/04/27 05:31:58;;;;;;;8.70;4.27;;;5.00;99.90;;;;;;5206570;28;20241;-70
2021/04/27 05:34:29;;;;;;;11.40;3.50;;;5.10;99.90;;;;;;5206824;28;20202;-70
2021/04/27 05:37:02;;;;;;;9.17;4.00;;;5.10;99.90;;;;;;5206846;28;20225;-74
2021/04/27 05:39:33;;;;;;;8.00;3.50;;;5.20;99.90;;;;;;5206509;28;20198;-76
2021/04/27 05:42:05;;;;;;;9.10;4.13;;;5.40;99.90;;;;;;5221848;28;20229;-74
2021/04/27 05:44:37;;;;;;;8.80;3.90;;;5.50;99.90;;;;;;5207302;28;20564;-77
2021/04/27 05:47:09;;;;;;;11.63;4.10;;;5.70;99.90;;;;;;5206416;28;20213;-70
2021/04/27 05:49:41;;;;;;;8.17;4.07;;;5.90;99.90;;;;;;5206585;28;20209;-71
2021/04/27 05:52:12;;;;;;;9.87;4.60;;;6.20;99.90;;;;;;5206638;28;20233;-74
2021/04/27 05:54:44;;;;;;;9.67;4.40;;;6.30;99.90;;;;;;5206798;28;20209;-69
2021/04/27 05:57:15;;;;;;;12.00;4.80;;;6.40;99.90;;;;;;5206294;28;20210;-69
2021/04/27 05:59:47;;;;;;;10.27;4.40;;;6.50;99.90;;;;;;5206408;28;20578;-65
2021/04/27 06:02:18;;;;;;;8.67;4.57;;;6.50;99.90;;;;;;5206398;28;20210;-69
2021/04/27 06:04:50;;;;;;;10.73;4.40;;;6.60;99.90;;;;;;5206640;28;20672;-69
2021/04/27 06:07:21;;;;;;;8.73;4.50;;;6.70;99.90;;;;;;5209943;28;20198;-68
2021/04/27 06:09:52;;;;;;;10.20;4.57;;;6.80;99.90;;;;;;5210597;28;20210;-69
2021/04/27 06:12:24;;;;;;;10.13;4.50;;;6.90;99.90;;;;;;5209941;28;20238;-67
2021/04/27 06:14:55;;;;;;;9.40;4.40;;;6.90;99.90;;;;;;5205784;28;20206;-72
2021/04/27 06:17:27;;;;;;;9.33;4.00;;;7.00;99.90;;;;;;5189507;28;20546;-70
2021/04/27 06:19:58;;;;;;;6.90;3.40;;;7.10;99.90;;;;;;5189266;28;20198;-70
2021/04/27 06:22:30;;;;;;;7.67;3.20;;;6.80;99.90;;;;;;5189513;28;20210;-68
2021/04/27 06:25:01;;;;;;;7.77;3.80;;;6.90;99.90;;;;;;5187817;28;20222;-69
2021/04/27 06:27:33;;;;;;;7.20;3.33;;;7.20;99.90;;;;;;5189202;28;20203;-69
2021/04/27 06:30:07;;;;;;;8.50;3.50;;;7.70;99.90;;;;;;5179021;28;20565;-68
2021/04/27 06:32:38;;;;;;;7.90;3.40;;;8.20;99.90;;;;;;5149497;28;20226;-69
2021/04/27 06:35:10;;;;;;;5.77;3.37;;;8.70;99.90;;;;;;5187155;28;20606;-71
2021/04/27 06:37:41;;;;;;;6.23;3.40;;;9.10;99.90;;;;;;5188102;28;20199;-68
2021/04/27 06:40:14;;;;;;;7.00;3.07;;;9.70;99.90;;;;;;5178713;28;20238;-70
2021/04/27 06:42:46;;;;;;;7.43;3.20;;;11.10;99.90;;;;;;5179199;28;20200;-69
2021/04/27 06:45:18;;;;;;;11.53;3.63;;;11.70;99.90;;;;;;5178161;28;20195;-70
2021/04/27 06:47:49;;;;;;;9.77;4.27;;;11.40;99.90;;;;;;5188538;28;20622;-71
2021/04/27 06:50:21;;;;;;;12.13;5.03;;;10.80;99.90;;;;;;5188241;28;20211;-73
2021/04/27 06:52:58;;;;;;;9.33;4.50;;;10.70;99.90;;;;;;5188922;28;20222;-72
2021/04/27 06:55:30;;;;;;;10.13;4.00;;;10.70;99.90;;;;;;5188723;28;20207;-72
2021/04/27 06:58:14;;;;;;;7.97;3.70;;;10.60;99.90;;;;;;5188091;28;20709;-73
2021/04/27 07:00:45;;;;;;;9.03;3.50;;;10.30;99.90;;;;;;5188662;28;20228;-69
2021/04/27 07:03:17;;;;;;;7.73;3.40;;;10.40;99.90;;;;;;5188694;28;20218;-75
2021/04/27 07:05:48;;;;;;;7.27;3.40;;;10.60;99.90;;;;;;5167112;28;20207;-72
2021/04/27 07:08:21;;;;;;;11.90;4.10;;;10.60;99.90;;;;;;5186264;28;20211;-71
2021/04/27 07:10:53;;;;;;;5.73;3.13;;;11.60;99.90;;;;;;5187055;28;20218;-73
2021/04/27 07:13:26;;;;;;;7.40;3.43;;;13.80;99.90;;;;;;5185921;28;20230;-71
2021/04/27 07:15:58;;;;;;;5.20;2.67;;;15.70;99.90;;;;;;5180228;28;20192;-72
2021/04/27 07:18:30;;;;;;;9.32;2.88;;;17.50;99.90;;;;;;5169767;28;20218;-72
2021/04/27 07:21:02;;;;;;;6.13;2.30;;;18.00;95.60;;;;;;5185903;28;20194;-70
2021/04/27 07:23:34;;;;;;;6.32;2.08;;;17.40;94.00;;;;;;5190075;28;20830;-71
2021/04/27 07:26:07;;;;;;;6.55;1.90;;;16.40;92.60;;;;;;5193802;28;20198;-69
2021/04/27 07:28:39;;;;;;;5.70;2.20;;;14.80;93.30;;;;;;5184059;28;20298;-72
2021/04/27 07:31:11;;;;;;;4.60;2.10;;;13.30;95.70;;;;;;5184240;28;20203;-72
2021/04/27 07:33:42;;;;;;;5.10;2.53;;;12.80;96.80;;;;;;5184338;28;20199;-71
2021/04/27 07:36:14;;;;;;;5.17;2.50;;;11.50;98.70;;;;;;5184942;28;20217;-70
2021/04/27 07:38:45;;;;;;;5.60;2.20;;;10.80;99.90;;;;;;5184457;28;20217;-71
2021/04/27 07:41:18;;;;;;;8.07;2.60;;;10.40;99.90;;;;;;5184744;28;20926;-70
2021/04/27 07:43:50;;;;;;;5.37;2.40;;;9.90;99.90;;;;;;5184428;28;20246;-71
2021/04/27 07:46:21;;;;;;;4.20;2.10;;;9.60;99.90;;;;;;5199901;28;20207;-71
2021/04/27 07:48:53;;;;;;;5.70;2.80;;;9.50;99.90;;;;;;5184216;28;20191;-70
2021/04/27 07:51:26;;;;;;;7.37;2.53;;;9.50;99.90;;;;;;5184627;28;20678;-70
2021/04/27 07:53:57;;;;;;;8.23;2.63;;;9.80;99.90;;;;;;5182721;28;20195;-72
2021/04/27 07:56:30;;;;;;;5.73;2.00;;;9.80;99.90;;;;;;5174990;28;20567;-71
2021/04/27 07:59:04;;;;;;;6.00;1.87;;;9.30;99.90;;;;;;5191412;28;20198;-74
2021/04/27 08:01:37;;;;;;;5.60;2.23;;;8.50;99.90;;;;;;5183833;28;20202;-72
2021/04/27 08:04:14;;;;;;;4.37;1.83;;;8.10;99.90;;;;;;5183962;28;20721;-71
2021/04/27 08:06:49;;;;;;;5.20;2.23;;;7.90;99.90;;;;;;5182417;28;20202;-71
2021/04/27 08:09:21;;;;;;;3.50;1.70;;;7.90;99.90;;;;;;5181456;28;20194;-70
2021/04/27 08:11:55;;;;;;;9.10;2.33;;;8.00;99.90;;;;;;5196907;28;20740;-68
2021/04/27 08:14:27;;;;;;;6.20;2.27;;;8.10;99.90;;;;;;5186117;28;20202;-68
2021/04/27 08:17:03;;;;;;;4.10;2.00;;;8.10;99.90;;;;;;5185200;28;20206;-71
2021/04/27 08:19:40;;;;;;;6.27;2.57;;;8.00;99.90;;;;;;5186243;28;20240;-70
2021/04/27 08:22:14;;;;;;;5.37;2.57;;;8.00;99.90;;;;;;5186232;28;20653;-72
2021/04/27 08:24:46;;;;;;;5.10;2.30;;;8.10;99.90;;;;;;5186468;28;20195;-73
2021/04/27 08:27:18;;;;;;;3.83;2.60;;;8.20;99.90;;;;;;5184964;28;20584;-69
2021/04/27 08:29:52;;;;;;;5.43;2.33;;;8.30;99.90;;;;;;5184150;28;20572;-71
2021/04/27 08:32:23;;;;;;;4.30;2.67;;;8.10;99.90;;;;;;5181259;28;20310;-72
2021/04/27 08:34:56;;;;;;;3.90;2.37;;;8.10;99.90;;;;;;5184140;28;20195;-67
2021/04/27 08:37:27;;;;;;;7.07;2.80;;;8.10;99.90;;;;;;5184251;28;20289;-68
2021/04/27 08:40:00;;;;;;;3.60;2.10;;;8.20;99.90;;;;;;5185301;28;20210;-66
2021/04/27 08:42:34;;;;;;;6.53;2.60;;;8.30;99.90;;;;;;5186443;28;20206;-67
2021/04/27 08:45:09;;;;;;;5.50;2.30;;;8.40;99.90;;;;;;5186448;28;20195;-67
2021/04/27 08:47:42;;;;;;;4.87;2.40;;;8.50;99.90;;;;;;5185859;28;20190;-68
2021/04/27 08:50:16;;;;;;;4.70;2.90;;;8.60;99.90;;;;;;5186154;28;20194;-68
2021/04/27 08:52:48;;;;;;;8.40;2.50;;;8.50;99.90;;;;;;5179411;28;20470;-67
2021/04/27 08:55:20;;;;;;;7.17;2.30;;;8.50;99.90;;;;;;5183499;28;20202;-67
2021/04/27 08:57:52;;;;;;;5.63;2.77;;;8.50;99.90;;;;;;5185207;28;20211;-72
2021/04/27 09:00:25;;;;;;;4.67;2.50;;;8.40;99.90;;;;;;5183415;28;20191;-67
2021/04/27 09:03:00;;;;;;;6.07;2.53;;;8.50;99.90;;;;;;5183609;28;20203;-68
2021/04/27 09:05:37;;;;;;;4.10;2.50;;;8.50;99.90;;;;;;5185371;28;20194;-68
2021/04/27 09:08:36;;;;;;;6.90;2.97;;;8.60;99.90;;;;;;5185636;28;20210;-66
2021/04/27 09:11:25;;;;;;;4.17;2.47;;;8.60;99.90;;;;;;5185556;28;20646;-69
2021/04/27 09:14:22;;;;;;;4.60;2.57;;;8.50;99.90;;;;;;5185336;28;20728;-67
2021/04/27 09:17:01;;;;;;;5.97;3.30;;;8.30;99.90;;;;;;5185979;28;20214;-67
2021/04/27 09:19:42;;;;;;;9.47;3.20;;;8.10;99.90;;;;;;5186132;28;20696;-67
2021/04/27 09:22:16;;;;;;;6.33;3.13;;;7.90;99.90;;;;;;5185852;28;20765;-66
2021/04/27 09:24:53;;;;;;;6.97;2.83;;;7.80;99.90;;;;;;5201376;28;20259;-67
2021/04/27 09:27:37;;;;;;;7.27;3.07;;;7.80;99.90;;;;;;5185193;28;20530;-67
2021/04/27 09:30:20;;;;;;;5.43;2.83;;;7.90;99.90;;;;;;5180199;28;20198;-71
2021/04/27 09:33:01;;;;;;;6.23;2.90;;;7.90;99.90;;;;;;5199999;28;20218;-69
2021/04/27 09:35:41;;;;;;;5.50;3.33;;;8.00;99.90;;;;;;5185113;28;20199;-69
2021/04/27 09:38:27;;;;;;;8.43;3.10;;;8.10;99.90;;;;;;5184663;28;20285;-71
2021/04/27 09:40:59;;;;;;;9.63;2.60;;;8.10;99.90;;;;;;5188565;28;20218;-71
2021/04/27 09:43:33;;;;;;;7.40;3.50;;;8.10;99.90;;;;;;5188894;28;20198;-69
2021/04/27 09:46:12;;;;;;;8.10;3.17;;;8.20;99.90;;;;;;5187519;28;20207;-69
2021/04/27 09:48:46;;;;;;;5.57;2.83;;;8.30;99.90;;;;;;5188897;28;20214;-72
2021/04/27 09:51:37;;;;;;;6.60;3.30;;;8.30;99.90;;;;;;5189421;28;20222;-69
2021/04/27 09:54:13;;;;;;;6.60;3.00;;;8.20;99.90;;;;;;5189263;28;20566;-67
2021/04/27 09:56:50;;;;;;;6.07;3.03;;;8.30;99.90;;;;;;5188094;28;20213;-69
2021/04/27 09:59:31;;;;;;;6.40;3.53;;;8.30;99.90;;;;;;5172374;28;20213;-65
2021/04/27 10:02:08;;;;;;;6.27;3.10;;;8.20;99.90;;;;;;5188789;28;20234;-70
2021/04/27 10:04:40;;;;;;;4.77;3.30;;;7.90;99.90;;;;;;5189430;28;20274;-71
2021/04/27 10:07:17;;;;;;;7.87;3.20;;;7.70;99.90;;;;;;5189137;28;20673;-73
2021/04/27 10:09:49;;;;;;;8.97;3.57;;;7.60;99.90;;;;;;5189778;28;20375;-70
2021/04/27 10:12:20;;;;;;;5.90;3.60;;;7.60;99.90;;;;;;5188621;28;20296;-68
2021/04/27 10:14:52;;;;;;;7.23;3.20;;;7.80;99.90;;;;;;5188301;28;20203;-70
2021/04/27 10:17:25;;;;;;;7.27;3.13;;;8.10;99.90;;;;;;5188592;28;20203;-70
2021/04/27 10:19:58;;;;;;;5.27;2.87;;;8.30;99.90;;;;;;5203949;28;20213;-72
2021/04/27 10:22:30;;;;;;;6.23;3.30;;;8.30;99.90;;;;;;5189901;28;20216;-67
2021/04/27 10:25:03;;;;;;;5.73;3.20;;;8.30;99.90;;;;;;5188430;28;20223;-71
2021/04/27 10:27:35;;;;;;;7.03;3.30;;;8.50;99.90;;;;;;5172058;28;20300;-74
2021/04/27 10:30:19;;;;;;;3.97;2.40;;;8.50;99.90;;;;;;5186789;28;20238;-74
2021/04/27 10:33:03;;;;;;;4.37;2.50;;;8.50;99.90;;;;;;5188186;28;20202;-72
2021/04/27 10:35:40;;;;;;;7.00;2.53;;;8.60;99.90;;;;;;5189530;28;20206;-78
2021/04/27 10:38:16;;;;;;;5.90;2.50;;;8.70;99.90;;;;;;5207124;28;20254;-79
2021/04/27 10:40:58;;;;;;;4.87;2.03;;;8.70;99.90;;;;;;5187463;28;20201;-72
2021/04/27 10:43:32;;;;;;;8.37;2.60;;;8.60;99.90;;;;;;5188282;28;20238;-73
2021/04/27 10:46:36;;;;;;;5.80;2.57;;;8.30;99.90;;;;;;5189037;28;20221;-74
2021/04/27 10:49:29;;;;;;;2.83;2.10;;;8.00;99.90;;;;;;5188522;28;20256;-73
2021/04/27 10:52:03;;;;;;;4.30;2.30;;;8.00;99.90;;;;;;5180129;28;20297;-73
2021/04/27 10:54:38;;;;;;;4.30;2.90;;;8.00;99.90;;;;;;5198542;28;20210;-81
2021/04/27 10:57:46;;;;;;;3.13;2.00;;;8.10;99.90;;;;;;5207201;28;20211;-69
2021/04/27 11:00:33;;;;;;;6.07;1.90;;;8.10;99.90;;;;;;5193837;28;20562;-74
2021/04/27 11:03:27;;;;;;;6.17;2.43;;;8.30;99.90;;;;;;5189889;28;20229;-79
2021/04/27 11:06:15;;;;;;;3.67;2.30;;;8.30;99.90;;;;;;5180779;28;20214;-75
2021/04/27 11:08:54;;;;;;;4.10;2.27;;;8.30;99.90;;;;;;5183393;28;20187;-72
2021/04/27 11:11:31;;;;;;;4.30;2.00;;;8.30;99.90;;;;;;5192530;28;20626;-75
2021/04/27 11:14:12;;;;;;;6.13;2.03;;;8.40;99.90;;;;;;5190814;28;20230;-73
2021/04/27 11:16:52;;;;;;;5.83;2.20;;;8.70;99.90;;;;;;5177705;28;20599;-73
2021/04/27 11:19:34;;;;;;;6.17;2.80;;;8.90;99.90;;;;;;5192694;28;20209;-73
2021/04/27 11:22:36;;;;;;;7.97;3.73;;;9.00;99.90;;;;;;5200781;28;20195;-75
2021/04/27 11:25:09;;;;;;;4.00;2.50;;;8.90;99.90;;;;;;5164267;28;20235;-74
2021/04/27 11:27:40;;;;;;;3.07;2.30;;;8.80;99.90;;;;;;5165318;28;20207;-76
2021/04/27 11:30:16;;;;;;;4.17;2.40;;;8.70;99.90;;;;;;5158051;28;20216;-76
2021/04/27 11:33:02;;;;;;;5.87;2.40;;;8.60;99.90;;;;;;5160821;28;20215;-75
2021/04/27 11:35:43;;;;;;;3.33;2.30;;;8.50;99.90;;;;;;5157271;28;20199;-75
2021/04/27 11:38:20;;;;;;;3.17;2.10;;;8.40;99.90;;;;;;5163435;28;20619;-75
2021/04/27 11:40:51;;;;;;;4.77;2.67;;;8.30;99.90;;;;;;5164001;28;20281;-74
2021/04/27 11:43:23;;;;;;;2.90;2.00;;;8.20;99.90;;;;;;5164376;28;20198;-76
2021/04/27 11:45:54;;;;;;;2.67;2.10;;;8.10;99.90;;;;;;5163914;28;20267;-69
2021/04/27 11:48:26;;;;;;;4.03;2.43;;;8.00;99.90;;;;;;5180260;28;20621;-70
2021/04/27 11:50:57;;;;;;;3.70;2.33;;;8.00;99.90;;;;;;5170527;28;20197;-70
2021/04/27 11:53:31;;;;;;;4.13;2.53;;;8.00;99.90;;;;;;5175415;28;20227;-74
2021/04/27 11:56:03;;;;;;;6.60;2.53;;;8.00;99.90;;;;;;5162432;28;20319;-74
2021/04/27 11:58:36;;;;;;;5.07;2.37;;;8.10;99.90;;;;;;5156781;28;20187;-74
2021/04/27 12:01:11;;;;;;;3.50;2.20;;;8.10;99.90;;;;;;5170748;28;20654;-76
2021/04/27 12:03:45;;;;;;;2.27;1.90;;;8.20;99.90;;;;;;5191918;28;20243;-69
2021/04/27 12:06:18;;;;;;;5.90;2.77;;;8.40;99.90;;;;;;5191063;28;20925;-75
2021/04/27 12:09:00;;;;;;;5.73;2.43;;;8.70;99.90;;;;;;5181890;28;20241;-70
2021/04/27 12:11:33;;;;;;;7.03;2.80;;;8.80;99.90;;;;;;5173055;28;20218;-71
2021/04/27 12:14:15;;;;;;;5.63;2.57;;;8.80;99.90;;;;;;5182646;28;20227;-75
2021/04/27 12:16:48;;;;;;;4.23;2.27;;;8.90;99.90;;;;;;5210426;28;20643;-75
2021/04/27 12:19:26;;;;;;;5.10;2.50;;;8.90;99.90;;;;;;5183807;28;20195;-74
2021/04/27 12:22:05;;;;;;;4.10;2.37;;;8.80;99.90;;;;;;5189107;28;20194;-75
2021/04/27 12:24:39;;;;;;;4.50;2.80;;;8.80;99.90;;;;;;5181506;28;20529;-71
2021/04/27 12:27:16;;;;;;;4.83;2.33;;;8.60;99.90;;;;;;5174208;28;20199;-72
2021/04/27 12:32:33;;;;;;;5.30;2.20;;;8.60;99.90;;;;;;5189955;28;20221;-71
2021/04/27 12:35:09;;;;;;;6.10;2.70;;;8.60;99.90;;;;;;5192639;28;20331;-72
2021/04/27 12:37:43;;;;;;;5.13;2.43;;;8.70;99.90;;;;;;5169587;28;20596;-70
2021/04/27 12:40:14;;;;;;;3.57;2.33;;;8.90;99.90;;;;;;5189399;28;20203;-71
2021/04/27 12:42:49;;;;;;;3.63;2.63;;;9.10;99.90;;;;;;5189063;28;20206;-72
2021/04/27 12:45:22;;;;;;;4.83;2.50;;;9.10;99.90;;;;;;5201166;28;20256;-71
2021/04/27 12:48:05;;;;;;;3.07;2.33;;;9.30;99.90;;;;;;5185680;28;20639;-73
2021/04/27 12:50:59;;;;;;;5.10;2.23;;;9.30;99.90;;;;;;5186242;28;20285;-71
2021/04/27 12:53:44;;;;;;;4.47;2.27;;;9.30;99.90;;;;;;5185860;28;20591;-71
2021/04/27 12:56:17;;;;;;;3.27;2.27;;;9.20;99.90;;;;;;5186394;28;20191;-73
2021/04/27 12:58:49;;;;;;;4.30;2.50;;;9.00;99.90;;;;;;5185857;28;20233;-74
2021/04/27 13:01:22;;;;;;;4.07;2.30;;;8.90;99.90;;;;;;5186279;28;20203;-73
2021/04/27 13:03:57;;;;;;;3.47;2.00;;;8.80;99.90;;;;;;5186122;28;20198;-72
2021/04/27 13:06:36;;;;;;;2.67;1.90;;;8.70;99.90;;;;;;5185550;28;20219;-70
2021/04/27 13:09:10;;;;;;;4.80;2.67;;;8.60;99.90;;;;;;5185922;28;20282;-74
2021/04/27 13:12:04;;;;;;;4.57;2.40;;;8.60;99.90;;;;;;5185955;28;20202;-71
2021/04/27 13:14:39;;;;;;;4.37;2.00;;;8.60;99.90;;;;;;5184862;28;20264;-70
2021/04/27 13:17:41;;;;;;;3.47;1.80;;;8.70;99.90;;;;;;5182320;28;20197;-72
2021/04/27 13:20:22;;;;;;;6.43;2.47;;;8.80;99.90;;;;;;5176940;28;20214;-76
2021/04/27 13:23:01;;;;;;;3.23;2.40;;;8.80;99.90;;;;;;5163070;28;20218;-73
2021/04/27 13:25:36;;;;;;;3.57;1.90;;;8.70;99.90;;;;;;5161402;28;20286;-74
2021/04/27 13:28:18;;;;;;;3.27;1.90;;;8.80;99.90;;;;;;5160776;28;20235;-73
2021/04/27 13:30:54;;;;;;;2.63;1.53;;;8.80;99.90;;;;;;5161450;28;20638;-71
2021/04/27 13:33:37;;;;;;;4.03;1.83;;;8.90;99.90;;;;;;5145285;28;20804;-71